createdAt,value
2023-04-09T00:00:54.487Z,5.34
2023-04-09T00:03:41.918Z,5.34
2023-04-09T00:06:29.283Z,5.31
2023-04-09T00:09:16.590Z,5.29
2023-04-09T00:12:03.893Z,5.28
2023-04-09T00:14:51.223Z,5.27
2023-04-09T00:17:38.539Z,5.26
2023-04-09T00:20:25.941Z,5.25
2023-04-09T00:23:13.276Z,5.23
2023-04-09T00:26:00.653Z,5.22
2023-04-09T00:28:48.017Z,5.21
2023-04-09T00:31:35.389Z,5.20
2023-04-09T00:34:22.739Z,5.18
2023-04-09T00:37:10.323Z,5.18
2023-04-09T00:39:57.606Z,5.17
2023-04-09T00:42:44.960Z,5.14
2023-04-09T00:45:32.286Z,5.13
2023-04-09T00:48:19.631Z,5.12
2023-04-09T00:51:06.948Z,5.10
2023-04-09T00:53:54.307Z,5.09
2023-04-09T00:56:41.630Z,5.08
2023-04-09T00:59:28.972Z,5.08
2023-04-09T01:02:16.356Z,5.07
2023-04-09T01:05:03.772Z,5.06
2023-04-09T01:07:51.122Z,5.05
2023-04-09T01:10:38.506Z,5.05
2023-04-09T01:13:25.823Z,5.04
2023-04-09T01:16:13.248Z,5.02
2023-04-09T01:19:00.582Z,5.02
2023-04-09T01:21:48.011Z,5.01
2023-04-09T01:24:35.335Z,4.99
2023-04-09T01:27:22.658Z,4.98
2023-04-09T01:30:09.952Z,4.96
2023-04-09T01:32:57.318Z,4.94
2023-04-09T01:35:44.641Z,4.92
2023-04-09T01:38:32.016Z,4.91
2023-04-09T01:41:19.341Z,4.90
2023-04-09T01:44:06.678Z,4.87
2023-04-09T01:46:53.997Z,4.84
2023-04-09T01:49:41.336Z,4.81
2023-04-09T01:52:28.629Z,4.78
2023-04-09T01:55:15.946Z,4.74
2023-04-09T01:58:03.270Z,4.70
2023-04-09T02:00:50.605Z,4.66
2023-04-09T02:03:37.978Z,4.62
2023-04-09T02:06:25.344Z,4.59
2023-04-09T02:09:12.642Z,4.54
2023-04-09T02:12:00.001Z,4.51
2023-04-09T02:14:47.329Z,4.44
2023-04-09T02:17:34.690Z,4.41
2023-04-09T02:20:22.055Z,4.35
2023-04-09T02:23:09.345Z,4.30
2023-04-09T02:25:56.711Z,4.25
2023-04-09T02:28:43.989Z,4.20
2023-04-09T02:31:31.400Z,4.15
2023-04-09T02:34:18.714Z,4.10
2023-04-09T02:37:06.076Z,4.04
2023-04-09T02:39:53.355Z,4.00
2023-04-09T02:42:40.711Z,3.94
2023-04-09T02:45:27.993Z,3.89
2023-04-09T02:48:15.334Z,3.84
2023-04-09T02:51:02.826Z,3.79
2023-04-09T02:53:50.179Z,3.73
2023-04-09T02:56:37.496Z,3.69
2023-04-09T02:59:24.854Z,3.63
2023-04-09T03:02:12.305Z,3.58
2023-04-09T03:04:59.686Z,3.53
2023-04-09T03:07:47.011Z,3.47
2023-04-09T03:10:34.336Z,3.43
2023-04-09T03:13:21.670Z,3.38
2023-04-09T03:16:09.080Z,3.32
2023-04-09T03:18:56.472Z,3.27
2023-04-09T03:21:43.838Z,3.22
2023-04-09T03:24:31.174Z,3.19
2023-04-09T03:27:18.531Z,3.12
2023-04-09T03:30:05.861Z,3.08
2023-04-09T03:32:53.250Z,3.03
2023-04-09T03:35:40.666Z,2.96
2023-04-09T03:38:28.008Z,2.92
2023-04-09T03:41:15.357Z,2.87
2023-04-09T03:44:02.722Z,2.82
2023-04-09T03:46:50.153Z,2.79
2023-04-09T03:49:37.503Z,2.73
2023-04-09T03:52:24.869Z,2.69
2023-04-09T03:55:12.206Z,2.65
2023-04-09T03:57:59.561Z,2.59
2023-04-09T04:00:46.893Z,2.55
2023-04-09T04:03:34.452Z,2.51
2023-04-09T04:06:21.905Z,2.47
2023-04-09T04:09:09.287Z,2.43
2023-04-09T04:11:56.622Z,2.38
2023-04-09T04:14:43.905Z,2.33
2023-04-09T04:17:31.279Z,2.29
2023-04-09T04:20:18.606Z,2.25
2023-04-09T04:23:05.927Z,2.21
2023-04-09T04:25:53.271Z,2.18
2023-04-09T04:28:40.669Z,2.14
2023-04-09T04:31:28.021Z,2.12
2023-04-09T04:34:15.777Z,2.07
2023-04-09T04:37:03.126Z,2.04
2023-04-09T04:39:50.457Z,2.01
2023-04-09T04:42:37.769Z,1.99
2023-04-09T04:45:25.112Z,1.97
2023-04-09T04:48:12.450Z,1.94
2023-04-09T04:50:59.791Z,1.92
2023-04-09T04:53:47.103Z,1.89
2023-04-09T04:56:34.458Z,1.88
2023-04-09T04:59:21.814Z,1.87
2023-04-09T05:02:09.255Z,1.84
2023-04-09T05:04:56.755Z,1.83
2023-04-09T05:07:44.090Z,1.81
2023-04-09T05:10:31.416Z,1.80
2023-04-09T05:13:18.751Z,1.79
2023-04-09T05:16:06.073Z,1.76
2023-04-09T05:18:53.786Z,1.76
2023-04-09T05:21:41.444Z,1.77
2023-04-09T05:24:28.782Z,1.75
2023-04-09T05:27:16.126Z,1.75
2023-04-09T05:30:03.556Z,1.74
2023-04-09T05:32:50.936Z,1.76
2023-04-09T05:35:38.340Z,1.75
2023-04-09T05:38:25.712Z,1.76
2023-04-09T05:41:13.049Z,1.77
2023-04-09T05:44:01.063Z,1.77
2023-04-09T05:46:48.452Z,1.79
2023-04-09T05:49:35.819Z,1.79
2023-04-09T05:52:23.170Z,1.80
2023-04-09T05:55:10.541Z,1.82
2023-04-09T05:57:57.868Z,1.82
2023-04-09T06:00:45.272Z,1.84
2023-04-09T06:03:32.952Z,1.87
2023-04-09T06:06:20.402Z,1.88
2023-04-09T06:09:07.749Z,1.90
2023-04-09T06:11:55.096Z,1.93
2023-04-09T06:14:42.414Z,1.97
2023-04-09T06:17:29.778Z,2.00
2023-04-09T06:20:17.133Z,2.03
2023-04-09T06:23:04.471Z,2.07
2023-04-09T06:25:51.790Z,2.12
2023-04-09T06:28:39.110Z,2.18
2023-04-09T06:31:26.513Z,2.23
2023-04-09T06:34:13.894Z,2.32
2023-04-09T06:37:01.314Z,2.41
2023-04-09T06:40:00.516Z,2.51
2023-04-09T06:42:48.539Z,2.65
2023-04-09T06:45:35.867Z,2.80
2023-04-09T06:48:23.625Z,2.96
2023-04-09T06:51:10.918Z,3.14
2023-04-09T06:53:58.263Z,3.34
2023-04-09T06:56:45.694Z,3.52
2023-04-09T06:59:33.075Z,3.72
2023-04-09T07:02:20.604Z,3.90
2023-04-09T07:05:08.063Z,4.07
2023-04-09T07:07:55.414Z,4.24
2023-04-09T07:10:42.767Z,4.41
2023-04-09T07:13:30.233Z,4.57
2023-04-09T07:16:17.693Z,4.73
2023-04-09T07:19:05.043Z,4.88
2023-04-09T07:21:52.430Z,5.03
2023-04-09T07:24:39.830Z,5.18
2023-04-09T07:27:27.144Z,5.35
2023-04-09T07:30:14.448Z,5.54
2023-04-09T07:33:01.887Z,5.74
2023-04-09T07:35:49.376Z,5.96
2023-04-09T07:38:36.736Z,6.16
2023-04-09T07:41:24.074Z,6.36
2023-04-09T07:44:11.418Z,6.56
2023-04-09T07:46:58.734Z,6.77
2023-04-09T07:49:46.329Z,6.93
2023-04-09T07:52:33.684Z,7.10
2023-04-09T07:55:21.035Z,7.27
2023-04-09T07:58:08.382Z,7.42
2023-04-09T08:00:55.727Z,7.55
2023-04-09T08:03:43.232Z,7.70
2023-04-09T08:06:30.637Z,7.82
2023-04-09T08:09:17.949Z,7.96
2023-04-09T08:12:05.332Z,8.10
2023-04-09T08:14:52.686Z,8.25
2023-04-09T08:17:40.120Z,8.38
2023-04-09T08:20:27.474Z,8.53
2023-04-09T08:23:14.824Z,8.68
2023-04-09T08:26:02.178Z,8.82
2023-04-09T08:28:49.541Z,8.98
2023-04-09T08:31:36.876Z,9.15
2023-04-09T08:34:24.249Z,9.36
2023-04-09T08:37:11.619Z,9.58
2023-04-09T08:39:58.969Z,9.83
2023-04-09T08:42:46.308Z,10.08
2023-04-09T08:45:33.684Z,10.38
2023-04-09T08:48:21.126Z,10.67
2023-04-09T08:51:08.509Z,10.98
2023-04-09T08:53:55.864Z,11.29
2023-04-09T08:56:43.163Z,11.59
2023-04-09T08:59:30.522Z,11.84
2023-04-09T09:02:17.862Z,12.09
2023-04-09T09:05:05.240Z,12.31
2023-04-09T09:07:52.551Z,12.49
2023-04-09T09:10:39.900Z,12.66
2023-04-09T09:13:27.250Z,12.77
2023-04-09T09:16:14.659Z,12.87
2023-04-09T09:19:02.171Z,12.94
2023-04-09T09:21:49.517Z,13.00
2023-04-09T09:24:36.862Z,13.04
2023-04-09T09:27:24.183Z,13.04
2023-04-09T09:30:11.485Z,13.06
2023-04-09T09:32:58.932Z,13.07
2023-04-09T09:35:46.390Z,13.07
2023-04-09T09:38:33.793Z,13.07
2023-04-09T09:41:21.147Z,13.07
2023-04-09T09:44:08.553Z,13.05
2023-04-09T09:46:55.902Z,13.05
2023-04-09T09:49:43.239Z,13.05
2023-04-09T09:52:30.562Z,13.03
2023-04-09T09:55:17.895Z,13.01
2023-04-09T09:58:05.230Z,12.99
2023-04-09T10:00:52.591Z,12.97
2023-04-09T10:03:39.956Z,12.95
2023-04-09T10:06:27.264Z,12.92
2023-04-09T10:09:14.892Z,12.91
2023-04-09T10:12:03.323Z,12.87
2023-04-09T10:14:50.691Z,12.85
2023-04-09T10:17:38.065Z,12.84
2023-04-09T10:20:25.458Z,12.85
2023-04-09T10:23:12.772Z,12.84
2023-04-09T10:26:00.163Z,12.84
2023-04-09T10:28:47.509Z,12.84
2023-04-09T10:31:34.981Z,12.82
2023-04-09T10:34:22.388Z,12.82
2023-04-09T10:37:09.777Z,12.79
2023-04-09T10:39:57.118Z,12.77
2023-04-09T10:42:44.484Z,12.75
2023-04-09T10:45:31.796Z,12.73
2023-04-09T10:48:19.178Z,12.70
2023-04-09T10:51:06.547Z,12.66
2023-04-09T10:53:53.921Z,12.64
2023-04-09T10:56:41.260Z,12.61
2023-04-09T10:59:28.591Z,12.61
2023-04-09T11:02:16.008Z,12.61
2023-04-09T11:05:03.537Z,12.62
2023-04-09T11:07:51.017Z,12.64
2023-04-09T11:10:38.365Z,12.68
2023-04-09T11:13:25.694Z,12.71
2023-04-09T11:16:13.114Z,12.74
2023-04-09T11:19:11.680Z,12.77
2023-04-09T11:21:59.360Z,12.80
2023-04-09T11:24:46.699Z,12.85
2023-04-09T11:27:34.052Z,12.88
2023-04-09T11:30:21.390Z,12.92
2023-04-09T11:33:08.838Z,12.96
2023-04-09T11:35:56.248Z,13.05
2023-04-09T11:38:43.646Z,13.18
2023-04-09T11:41:30.969Z,13.35
2023-04-09T11:44:18.336Z,13.55
2023-04-09T11:47:05.755Z,13.73
2023-04-09T11:49:53.127Z,13.94
2023-04-09T11:52:40.484Z,14.11
2023-04-09T11:55:27.857Z,14.31
2023-04-09T11:58:15.223Z,14.46
2023-04-09T12:01:02.566Z,14.61
2023-04-09T12:03:50.077Z,14.75
2023-04-09T12:06:37.435Z,14.90
2023-04-09T12:09:25.145Z,15.01
2023-04-09T12:12:12.475Z,15.12
2023-04-09T12:14:59.797Z,15.21
2023-04-09T12:17:47.127Z,15.28
2023-04-09T12:20:34.501Z,15.34
2023-04-09T12:23:21.849Z,15.36
2023-04-09T12:26:09.243Z,15.35
2023-04-09T12:28:56.553Z,15.30
2023-04-09T12:31:43.962Z,15.19
2023-04-09T12:34:31.323Z,15.06
2023-04-09T12:37:18.657Z,14.95
2023-04-09T12:40:05.988Z,14.84
2023-04-09T12:42:53.318Z,14.73
2023-04-09T12:45:40.684Z,14.64
2023-04-09T12:48:28.049Z,14.54
2023-04-09T12:51:15.347Z,14.46
2023-04-09T12:54:02.727Z,14.38
2023-04-09T12:56:50.050Z,14.31
2023-04-09T12:59:37.382Z,14.26
2023-04-09T13:02:24.877Z,14.20
2023-04-09T13:05:12.410Z,14.17
2023-04-09T13:07:59.720Z,14.10
2023-04-09T13:10:47.051Z,14.02
2023-04-09T13:13:34.363Z,13.99
2023-04-09T13:16:21.748Z,13.95
2023-04-09T13:19:09.111Z,13.89
2023-04-09T13:21:56.450Z,13.86
2023-04-09T13:24:43.755Z,13.83
2023-04-09T13:27:31.122Z,13.79
2023-04-09T13:30:18.455Z,13.75
2023-04-09T13:33:05.887Z,13.70
2023-04-09T13:35:53.314Z,13.65
2023-04-09T13:38:40.712Z,13.63
2023-04-09T13:41:29.317Z,13.58
2023-04-09T13:44:17.561Z,13.56
2023-04-09T13:47:04.868Z,13.53
2023-04-09T13:49:52.198Z,13.47
2023-04-09T13:52:39.534Z,13.39
2023-04-09T13:55:26.868Z,13.35
2023-04-09T13:58:14.231Z,13.33
2023-04-09T14:01:02.936Z,13.25
2023-04-09T14:03:50.711Z,13.23
2023-04-09T14:06:38.139Z,13.20
2023-04-09T14:09:25.502Z,13.18
2023-04-09T14:12:12.881Z,13.17
2023-04-09T14:15:00.249Z,13.16
2023-04-09T14:17:47.684Z,13.16
2023-04-09T14:20:35.050Z,13.11
2023-04-09T14:23:22.727Z,13.11
2023-04-09T14:26:10.089Z,13.10
2023-04-09T14:28:57.443Z,13.08
2023-04-09T14:31:44.801Z,13.08
2023-04-09T14:34:32.151Z,13.09
2023-04-09T14:37:19.465Z,13.06
2023-04-09T14:40:06.819Z,13.04
2023-04-09T14:42:54.131Z,13.03
2023-04-09T14:45:41.493Z,12.99
2023-04-09T14:48:28.831Z,12.98
2023-04-09T14:51:16.166Z,12.97
2023-04-09T14:54:03.508Z,12.95
2023-04-09T14:56:50.852Z,12.95
2023-04-09T14:59:38.146Z,12.94
2023-04-09T15:02:25.709Z,12.97
2023-04-09T15:05:13.236Z,13.00
2023-04-09T15:08:00.606Z,13.01
2023-04-09T15:10:47.903Z,13.03
2023-04-09T15:13:35.258Z,13.03
2023-04-09T15:16:22.614Z,13.02
2023-04-09T15:19:10.008Z,13.04
2023-04-09T15:21:57.303Z,13.05
2023-04-09T15:24:44.666Z,13.07
2023-04-09T15:27:31.984Z,13.07
2023-04-09T15:30:19.626Z,13.09
2023-04-09T15:33:07.079Z,13.09
2023-04-09T15:35:54.487Z,13.08
2023-04-09T15:38:41.858Z,13.08
2023-04-09T15:41:29.200Z,13.07
2023-04-09T15:44:16.564Z,13.03
2023-04-09T15:46:43.810Z,13.00
2023-04-09T15:49:29.546Z,12.96
2023-04-09T15:52:15.446Z,12.91
2023-04-09T15:55:02.829Z,12.86
2023-04-09T15:57:50.194Z,12.83
2023-04-09T16:00:37.549Z,12.77
2023-04-09T16:03:24.926Z,12.74
2023-04-09T16:06:12.269Z,12.71
2023-04-09T16:08:59.612Z,12.67
2023-04-09T16:11:46.912Z,12.66
2023-04-09T16:14:34.284Z,12.66
2023-04-09T16:17:21.622Z,12.65
2023-04-09T16:20:08.977Z,12.67
2023-04-09T16:22:56.306Z,12.68
2023-04-09T16:25:44.135Z,12.71
2023-04-09T16:28:31.655Z,12.72
2023-04-09T16:31:19.049Z,12.74
2023-04-09T16:34:06.469Z,12.77
2023-04-09T16:36:53.821Z,12.79
2023-04-09T16:39:41.148Z,12.82
2023-04-09T16:42:28.472Z,12.86
2023-04-09T16:45:15.813Z,12.89
2023-04-09T16:48:03.280Z,12.93
2023-04-09T16:50:50.661Z,12.97
2023-04-09T16:53:38.973Z,13.01
2023-04-09T16:56:26.399Z,13.05
2023-04-09T16:59:13.976Z,13.10
2023-04-09T17:02:01.501Z,13.13
2023-04-09T17:04:48.946Z,13.18
2023-04-09T17:07:36.302Z,13.25
2023-04-09T17:10:23.653Z,13.30
2023-04-09T17:13:10.985Z,13.35
2023-04-09T17:15:58.288Z,13.41
2023-04-09T17:18:45.645Z,13.46
2023-04-09T17:21:32.956Z,13.51
2023-04-09T17:24:20.311Z,13.56
2023-04-09T17:27:07.641Z,13.58
2023-04-09T17:29:55.348Z,13.61
2023-04-09T17:32:42.788Z,13.63
2023-04-09T17:35:30.201Z,13.64
2023-04-09T17:38:17.568Z,13.64
2023-04-09T17:41:06.400Z,13.63
2023-04-09T17:43:54.849Z,13.61
2023-04-09T17:46:42.242Z,13.60
2023-04-09T17:49:29.660Z,13.57
2023-04-09T17:52:16.967Z,13.53
2023-04-09T17:55:04.264Z,13.50
2023-04-09T17:57:51.618Z,13.47
2023-04-09T18:00:38.960Z,13.47
2023-04-09T18:03:26.493Z,13.53
2023-04-09T18:06:13.939Z,13.63
2023-04-09T18:09:01.308Z,13.73
2023-04-09T18:11:48.686Z,13.83
2023-04-09T18:14:36.022Z,13.93
2023-04-09T18:17:23.353Z,14.03
2023-04-09T18:20:10.841Z,14.12
2023-04-09T18:22:58.183Z,14.20
2023-04-09T18:25:45.549Z,14.28
2023-04-09T18:28:32.880Z,14.32
2023-04-09T18:31:20.296Z,14.37
2023-04-09T18:34:07.678Z,14.41
2023-04-09T18:36:55.045Z,14.44
2023-04-09T18:39:42.331Z,14.49
2023-04-09T18:42:29.697Z,14.50
2023-04-09T18:45:16.995Z,14.51
2023-04-09T18:48:04.560Z,14.54
2023-04-09T18:50:51.917Z,14.53
2023-04-09T18:53:39.281Z,14.50
2023-04-09T18:56:26.628Z,14.34
2023-04-09T18:59:13.997Z,14.16
2023-04-09T19:02:04.426Z,13.96
2023-04-09T19:04:52.300Z,13.75
2023-04-09T19:07:39.673Z,13.52
2023-04-09T19:10:26.987Z,13.33
2023-04-09T19:13:14.391Z,13.12
2023-04-09T19:16:01.800Z,12.95
2023-04-09T19:18:49.162Z,12.75
2023-04-09T19:21:36.498Z,12.57
2023-04-09T19:24:23.816Z,12.41
2023-04-09T19:27:11.138Z,12.23
2023-04-09T19:29:58.489Z,12.06
2023-04-09T19:32:45.914Z,11.90
2023-04-09T19:35:33.752Z,11.74
2023-04-09T19:38:21.085Z,11.60
2023-04-09T19:41:08.473Z,11.43
2023-04-09T19:43:55.833Z,11.28
2023-04-09T19:46:43.233Z,11.13
2023-04-09T19:49:30.589Z,10.96
2023-04-09T19:52:17.949Z,10.82
2023-04-09T19:55:05.302Z,10.66
2023-04-09T19:57:52.653Z,10.53
2023-04-09T20:00:40.019Z,10.38
2023-04-09T20:03:27.522Z,10.26
2023-04-09T20:06:15.046Z,10.10
2023-04-09T20:09:02.427Z,9.98
2023-04-09T20:11:49.760Z,9.85
2023-04-09T20:14:37.193Z,9.73
2023-04-09T20:17:24.563Z,9.59
2023-04-09T20:20:11.922Z,9.47
2023-04-09T20:22:59.233Z,9.36
2023-04-09T20:25:46.592Z,9.24
2023-04-09T20:28:33.965Z,9.14
2023-04-09T20:31:21.353Z,9.03
2023-04-09T20:34:08.700Z,8.91
2023-04-09T20:36:56.003Z,8.81
2023-04-09T20:39:43.371Z,8.71
2023-04-09T20:42:30.684Z,8.59
2023-04-09T20:45:18.018Z,8.48
2023-04-09T20:48:05.362Z,8.38
2023-04-09T20:50:52.795Z,8.27
2023-04-09T20:53:40.114Z,8.17
2023-04-09T20:56:27.484Z,8.07
2023-04-09T20:59:14.813Z,7.99
2023-04-09T21:02:02.319Z,7.89
2023-04-09T21:04:49.779Z,7.80
2023-04-09T21:07:37.124Z,7.70
2023-04-09T21:10:24.532Z,7.62
2023-04-09T21:13:11.883Z,7.51
2023-04-09T21:15:59.250Z,7.42
2023-04-09T21:18:46.594Z,7.33
2023-04-09T21:21:33.932Z,7.25
2023-04-09T21:24:21.274Z,7.15
2023-04-09T21:27:08.566Z,7.06
2023-04-09T21:29:55.900Z,6.98
2023-04-09T21:32:43.273Z,6.88
2023-04-09T21:35:31.056Z,6.80
2023-04-09T21:38:18.395Z,6.72
2023-04-09T21:41:05.717Z,6.64
2023-04-09T21:43:53.048Z,6.56
2023-04-09T21:46:40.828Z,6.48
2023-04-09T21:49:28.555Z,6.40
2023-04-09T21:52:15.921Z,6.33
2023-04-09T21:55:03.251Z,6.24
2023-04-09T21:57:50.616Z,6.15
2023-04-09T22:00:37.964Z,6.08
2023-04-09T22:03:25.488Z,6.01
2023-04-09T22:06:12.844Z,5.94
2023-04-09T22:09:00.483Z,5.87
2023-04-09T22:11:48.073Z,5.82
2023-04-09T22:14:35.432Z,5.75
2023-04-09T22:17:22.792Z,5.69
2023-04-09T22:20:10.143Z,5.63
2023-04-09T22:22:57.440Z,5.55
2023-04-09T22:25:44.792Z,5.51
2023-04-09T22:28:32.147Z,5.45
2023-04-09T22:31:19.533Z,5.40
2023-04-09T22:34:19.492Z,5.34
2023-04-09T22:37:08.429Z,5.29
2023-04-09T22:39:55.763Z,5.24
2023-04-09T22:42:43.474Z,5.18
2023-04-09T22:45:30.816Z,5.13
2023-04-09T22:48:18.177Z,5.07
2023-04-09T22:51:05.500Z,5.02
2023-04-09T22:53:52.865Z,4.96
2023-04-09T22:56:40.193Z,4.91
2023-04-09T22:59:38.989Z,4.84
2023-04-09T23:02:27.245Z,4.80
2023-04-09T23:05:14.862Z,4.74
2023-04-09T23:08:02.214Z,4.68
2023-04-09T23:10:49.576Z,4.62
2023-04-09T23:13:36.890Z,4.56
2023-04-09T23:16:24.319Z,4.50
2023-04-09T23:19:11.707Z,4.46
2023-04-09T23:21:59.082Z,4.40
2023-04-09T23:24:46.442Z,4.34
2023-04-09T23:27:33.762Z,4.31
2023-04-09T23:30:21.063Z,4.23
2023-04-09T23:33:08.433Z,4.18
2023-04-09T23:35:55.850Z,4.12
2023-04-09T23:38:43.214Z,4.07
2023-04-09T23:41:30.524Z,4.03
2023-04-09T23:44:17.850Z,3.99
2023-04-09T23:47:05.224Z,3.94
2023-04-09T23:49:52.587Z,3.89
2023-04-09T23:52:39.924Z,3.84
2023-04-09T23:55:27.246Z,3.80
2023-04-09T23:58:14.610Z,3.75
